sensor_id;sensor_type;location;lat;lon;timestamp;temperature;humidity
29237;DHT22;16266;50.866;4.398;2023-05-18T00:01:19;8.70;99.90
29237;DHT22;16266;50.866;4.398;2023-05-18T00:03:44;8.60;99.90
29237;DHT22;16266;50.866;4.398;2023-05-18T00:06:11;8.60;99.90
29237;DHT22;16266;50.866;4.398;2023-05-18T00:08:37;8.60;99.90
29237;DHT22;16266;50.866;4.398;2023-05-18T00:11:03;8.50;99.90
29237;DHT22;16266;50.866;4.398;2023-05-18T00:13:29;8.60;99.90
29237;DHT22;16266;50.866;4.398;2023-05-18T00:15:55;8.50;99.90
29237;DHT22;16266;50.866;4.398;2023-05-18T00:18:21;8.40;99.90
29237;DHT22;16266;50.866;4.398;2023-05-18T00:20:54;8.50;99.90
29237;DHT22;16266;50.866;4.398;2023-05-18T00:23:32;8.40;99.90
29237;DHT22;16266;50.866;4.398;2023-05-18T00:25:58;8.40;99.90
29237;DHT22;16266;50.866;4.398;2023-05-18T00:28:25;8.40;99.90
29237;DHT22;16266;50.866;4.398;2023-05-18T00:30:51;8.40;99.90
29237;DHT22;16266;50.866;4.398;2023-05-18T00:33:17;8.40;99.90
29237;DHT22;16266;50.866;4.398;2023-05-18T00:35:43;8.40;99.90
29237;DHT22;16266;50.866;4.398;2023-05-18T00:38:09;8.30;99.90
29237;DHT22;16266;50.866;4.398;2023-05-18T00:40:36;8.30;99.90
29237;DHT22;16266;50.866;4.398;2023-05-18T00:43:03;8.30;99.90
29237;DHT22;16266;50.866;4.398;2023-05-18T00:45:29;8.30;99.90
29237;DHT22;16266;50.866;4.398;2023-05-18T00:47:55;8.20;99.90
29237;DHT22;16266;50.866;4.398;2023-05-18T00:50:20;8.10;99.90
29237;DHT22;16266;50.866;4.398;2023-05-18T00:52:46;8.00;99.90
29237;DHT22;16266;50.866;4.398;2023-05-18T00:55:12;8.10;99.90
29237;DHT22;16266;50.866;4.398;2023-05-18T00:57:41;8.00;99.90
29237;DHT22;16266;50.866;4.398;2023-05-18T01:00:09;8.00;99.90
29237;DHT22;16266;50.866;4.398;2023-05-18T01:02:35;8.00;99.90
29237;DHT22;16266;50.866;4.398;2023-05-18T01:05:07;7.90;99.90
29237;DHT22;16266;50.866;4.398;2023-05-18T01:07:36;7.90;99.90
29237;DHT22;16266;50.866;4.398;2023-05-18T01:10:03;7.90;99.90
29237;DHT22;16266;50.866;4.398;2023-05-18T01:12:35;7.80;99.90
29237;DHT22;16266;50.866;4.398;2023-05-18T01:15:08;7.80;99.90
29237;DHT22;16266;50.866;4.398;2023-05-18T01:28:22;7.70;99.90
29237;DHT22;16266;50.866;4.398;2023-05-18T01:30:52;7.60;99.90
29237;DHT22;16266;50.866;4.398;2023-05-18T01:33:18;7.70;99.90
29237;DHT22;16266;50.866;4.398;2023-05-18T01:35:43;7.70;99.90
29237;DHT22;16266;50.866;4.398;2023-05-18T01:38:32;7.60;99.90
29237;DHT22;16266;50.866;4.398;2023-05-18T01:43:42;7.50;99.90
29237;DHT22;16266;50.866;4.398;2023-05-18T01:49:01;7.50;99.90
29237;DHT22;16266;50.866;4.398;2023-05-18T01:51:32;7.40;99.90
29237;DHT22;16266;50.866;4.398;2023-05-18T01:54:06;7.40;99.90
29237;DHT22;16266;50.866;4.398;2023-05-18T01:56:33;7.40;99.90
29237;DHT22;16266;50.866;4.398;2023-05-18T01:58:59;7.40;99.90
29237;DHT22;16266;50.866;4.398;2023-05-18T02:01:25;7.40;99.90
29237;DHT22;16266;50.866;4.398;2023-05-18T02:03:51;7.30;99.90
29237;DHT22;16266;50.866;4.398;2023-05-18T02:06:16;7.30;99.90
29237;DHT22;16266;50.866;4.398;2023-05-18T02:08:42;7.30;99.90
29237;DHT22;16266;50.866;4.398;2023-05-18T02:11:08;7.30;99.90
29237;DHT22;16266;50.866;4.398;2023-05-18T02:13:34;7.30;99.90
29237;DHT22;16266;50.866;4.398;2023-05-18T02:16:02;7.30;99.90
29237;DHT22;16266;50.866;4.398;2023-05-18T02:18:28;7.30;99.90
29237;DHT22;16266;50.866;4.398;2023-05-18T02:21:01;7.20;99.90
29237;DHT22;16266;50.866;4.398;2023-05-18T02:23:27;7.20;99.90
29237;DHT22;16266;50.866;4.398;2023-05-18T02:25:53;7.20;99.90
29237;DHT22;16266;50.866;4.398;2023-05-18T02:28:20;7.10;99.90
29237;DHT22;16266;50.866;4.398;2023-05-18T02:30:46;7.10;99.90
29237;DHT22;16266;50.866;4.398;2023-05-18T02:33:12;7.10;99.90
29237;DHT22;16266;50.866;4.398;2023-05-18T02:35:38;7.20;99.90
29237;DHT22;16266;50.866;4.398;2023-05-18T02:38:05;7.10;99.90
29237;DHT22;16266;50.866;4.398;2023-05-18T02:40:31;7.10;99.90
29237;DHT22;16266;50.866;4.398;2023-05-18T02:42:57;7.10;99.90
29237;DHT22;16266;50.866;4.398;2023-05-18T02:45:24;7.00;99.90
29237;DHT22;16266;50.866;4.398;2023-05-18T02:47:50;6.90;99.90
29237;DHT22;16266;50.866;4.398;2023-05-18T02:50:15;6.90;99.90
29237;DHT22;16266;50.866;4.398;2023-05-18T02:52:41;7.00;99.90
29237;DHT22;16266;50.866;4.398;2023-05-18T02:55:09;7.00;99.90
29237;DHT22;16266;50.866;4.398;2023-05-18T02:57:35;7.00;99.90
29237;DHT22;16266;50.866;4.398;2023-05-18T03:00:01;6.90;99.90
29237;DHT22;16266;50.866;4.398;2023-05-18T03:02:26;6.90;99.90
29237;DHT22;16266;50.866;4.398;2023-05-18T03:04:52;7.00;99.90
29237;DHT22;16266;50.866;4.398;2023-05-18T03:07:22;7.00;99.90
29237;DHT22;16266;50.866;4.398;2023-05-18T03:09:48;7.00;99.90
29237;DHT22;16266;50.866;4.398;2023-05-18T03:12:13;7.00;99.90
29237;DHT22;16266;50.866;4.398;2023-05-18T03:14:39;6.90;99.90
29237;DHT22;16266;50.866;4.398;2023-05-18T03:17:05;6.90;99.90
29237;DHT22;16266;50.866;4.398;2023-05-18T03:19:31;6.90;99.90
29237;DHT22;16266;50.866;4.398;2023-05-18T03:21:59;6.90;99.90
29237;DHT22;16266;50.866;4.398;2023-05-18T03:24:25;6.90;99.90
29237;DHT22;16266;50.866;4.398;2023-05-18T03:26:54;6.80;99.90
29237;DHT22;16266;50.866;4.398;2023-05-18T03:29:21;6.70;99.90
29237;DHT22;16266;50.866;4.398;2023-05-18T03:31:47;6.70;99.90
29237;DHT22;16266;50.866;4.398;2023-05-18T03:34:13;6.70;99.90
29237;DHT22;16266;50.866;4.398;2023-05-18T03:36:40;6.70;99.90
29237;DHT22;16266;50.866;4.398;2023-05-18T03:39:06;6.70;99.90
29237;DHT22;16266;50.866;4.398;2023-05-18T03:41:33;6.70;99.90
29237;DHT22;16266;50.866;4.398;2023-05-18T03:43:58;6.60;99.90
29237;DHT22;16266;50.866;4.398;2023-05-18T03:46:24;6.60;99.90
29237;DHT22;16266;50.866;4.398;2023-05-18T03:48:51;6.60;99.90
29237;DHT22;16266;50.866;4.398;2023-05-18T03:51:19;6.50;99.90
29237;DHT22;16266;50.866;4.398;2023-05-18T03:53:45;6.60;99.90
29237;DHT22;16266;50.866;4.398;2023-05-18T03:56:11;6.50;99.90
29237;DHT22;16266;50.866;4.398;2023-05-18T03:58:37;6.60;99.90
29237;DHT22;16266;50.866;4.398;2023-05-18T04:01:03;6.50;99.90
29237;DHT22;16266;50.866;4.398;2023-05-18T04:03:29;6.50;99.90
29237;DHT22;16266;50.866;4.398;2023-05-18T04:05:55;6.60;99.90
29237;DHT22;16266;50.866;4.398;2023-05-18T04:08:21;6.60;99.90
29237;DHT22;16266;50.866;4.398;2023-05-18T04:10:50;6.70;99.90
29237;DHT22;16266;50.866;4.398;2023-05-18T04:13:16;6.70;99.90
29237;DHT22;16266;50.866;4.398;2023-05-18T04:15:42;6.70;99.90
29237;DHT22;16266;50.866;4.398;2023-05-18T04:18:08;6.70;99.90
29237;DHT22;16266;50.866;4.398;2023-05-18T04:20:35;6.70;99.90
29237;DHT22;16266;50.866;4.398;2023-05-18T04:23:02;6.80;99.90
29237;DHT22;16266;50.866;4.398;2023-05-18T04:25:30;6.90;99.90
29237;DHT22;16266;50.866;4.398;2023-05-18T04:27:56;7.00;99.90
29237;DHT22;16266;50.866;4.398;2023-05-18T04:30:21;7.10;99.90
29237;DHT22;16266;50.866;4.398;2023-05-18T04:32:48;7.10;99.90
29237;DHT22;16266;50.866;4.398;2023-05-18T04:35:14;7.20;99.90
29237;DHT22;16266;50.866;4.398;2023-05-18T04:37:40;7.30;99.90
29237;DHT22;16266;50.866;4.398;2023-05-18T04:40:09;7.50;99.90
29237;DHT22;16266;50.866;4.398;2023-05-18T04:42:38;7.60;99.90
29237;DHT22;16266;50.866;4.398;2023-05-18T04:45:10;7.80;99.90
29237;DHT22;16266;50.866;4.398;2023-05-18T04:47:37;7.90;99.90
29237;DHT22;16266;50.866;4.398;2023-05-18T04:50:03;8.00;99.90
29237;DHT22;16266;50.866;4.398;2023-05-18T04:52:30;8.00;99.90
29237;DHT22;16266;50.866;4.398;2023-05-18T04:54:56;8.10;99.90
29237;DHT22;16266;50.866;4.398;2023-05-18T04:57:22;8.20;99.90
29237;DHT22;16266;50.866;4.398;2023-05-18T04:59:47;8.30;99.90
29237;DHT22;16266;50.866;4.398;2023-05-18T05:02:13;8.30;99.90
29237;DHT22;16266;50.866;4.398;2023-05-18T05:04:39;8.40;99.90
29237;DHT22;16266;50.866;4.398;2023-05-18T05:07:06;8.30;99.90
29237;DHT22;16266;50.866;4.398;2023-05-18T05:09:31;8.30;99.90
29237;DHT22;16266;50.866;4.398;2023-05-18T05:11:57;8.60;99.90
29237;DHT22;16266;50.866;4.398;2023-05-18T05:14:23;8.60;99.90
29237;DHT22;16266;50.866;4.398;2023-05-18T05:16:48;8.70;99.90
29237;DHT22;16266;50.866;4.398;2023-05-18T05:19:14;8.90;99.90
29237;DHT22;16266;50.866;4.398;2023-05-18T05:21:40;9.20;99.90
29237;DHT22;16266;50.866;4.398;2023-05-18T05:24:06;9.40;99.90
29237;DHT22;16266;50.866;4.398;2023-05-18T05:26:33;9.40;99.90
29237;DHT22;16266;50.866;4.398;2023-05-18T05:28:59;9.40;99.90
29237;DHT22;16266;50.866;4.398;2023-05-18T05:31:25;9.40;99.90
29237;DHT22;16266;50.866;4.398;2023-05-18T05:33:51;9.30;99.90
29237;DHT22;16266;50.866;4.398;2023-05-18T05:36:16;9.30;99.90
29237;DHT22;16266;50.866;4.398;2023-05-18T05:38:42;9.20;99.90
29237;DHT22;16266;50.866;4.398;2023-05-18T05:41:08;9.20;99.90
29237;DHT22;16266;50.866;4.398;2023-05-18T05:43:33;9.00;99.90
29237;DHT22;16266;50.866;4.398;2023-05-18T05:45:59;9.10;99.90
29237;DHT22;16266;50.866;4.398;2023-05-18T05:48:25;9.30;99.90
29237;DHT22;16266;50.866;4.398;2023-05-18T05:50:50;9.40;99.90
29237;DHT22;16266;50.866;4.398;2023-05-18T05:53:16;9.60;99.90
29237;DHT22;16266;50.866;4.398;2023-05-18T05:55:44;9.50;99.90
29237;DHT22;16266;50.866;4.398;2023-05-18T05:58:09;9.80;99.90
29237;DHT22;16266;50.866;4.398;2023-05-18T06:00:35;9.80;99.90
29237;DHT22;16266;50.866;4.398;2023-05-18T06:03:01;10.10;99.90
29237;DHT22;16266;50.866;4.398;2023-05-18T06:05:27;10.30;99.90
29237;DHT22;16266;50.866;4.398;2023-05-18T06:07:52;10.20;99.90
29237;DHT22;16266;50.866;4.398;2023-05-18T06:10:19;10.20;99.90
29237;DHT22;16266;50.866;4.398;2023-05-18T06:12:45;10.30;99.90
29237;DHT22;16266;50.866;4.398;2023-05-18T06:15:11;10.30;99.90
29237;DHT22;16266;50.866;4.398;2023-05-18T06:17:36;10.30;99.90
29237;DHT22;16266;50.866;4.398;2023-05-18T06:20:03;10.30;99.90
29237;DHT22;16266;50.866;4.398;2023-05-18T06:22:31;10.70;99.90
29237;DHT22;16266;50.866;4.398;2023-05-18T06:24:57;11.20;99.90
29237;DHT22;16266;50.866;4.398;2023-05-18T06:27:23;11.40;99.90
29237;DHT22;16266;50.866;4.398;2023-05-18T06:29:48;11.70;99.90
29237;DHT22;16266;50.866;4.398;2023-05-18T06:32:14;11.90;99.90
29237;DHT22;16266;50.866;4.398;2023-05-18T06:34:40;11.90;99.90
29237;DHT22;16266;50.866;4.398;2023-05-18T06:37:06;12.00;99.90
29237;DHT22;16266;50.866;4.398;2023-05-18T06:39:32;12.20;99.90
29237;DHT22;16266;50.866;4.398;2023-05-18T06:41:58;12.60;99.90
29237;DHT22;16266;50.866;4.398;2023-05-18T06:44:23;12.90;99.90
29237;DHT22;16266;50.866;4.398;2023-05-18T06:46:49;13.10;99.90
29237;DHT22;16266;50.866;4.398;2023-05-18T06:49:15;13.10;99.90
29237;DHT22;16266;50.866;4.398;2023-05-18T06:51:40;13.20;99.90
29237;DHT22;16266;50.866;4.398;2023-05-18T06:54:08;13.50;99.90
29237;DHT22;16266;50.866;4.398;2023-05-18T06:56:33;13.70;99.90
29237;DHT22;16266;50.866;4.398;2023-05-18T06:58:59;13.90;99.90
29237;DHT22;16266;50.866;4.398;2023-05-18T07:01:25;14.10;99.90
29237;DHT22;16266;50.866;4.398;2023-05-18T07:03:50;14.20;99.90
29237;DHT22;16266;50.866;4.398;2023-05-18T07:06:16;14.70;99.90
29237;DHT22;16266;50.866;4.398;2023-05-18T07:08:43;15.20;99.90
29237;DHT22;16266;50.866;4.398;2023-05-18T07:11:08;15.90;99.90
29237;DHT22;16266;50.866;4.398;2023-05-18T07:13:34;16.60;99.90
29237;DHT22;16266;50.866;4.398;2023-05-18T07:16:00;17.50;99.90
29237;DHT22;16266;50.866;4.398;2023-05-18T07:18:26;17.80;99.90
29237;DHT22;16266;50.866;4.398;2023-05-18T07:20:52;17.60;99.90
29237;DHT22;16266;50.866;4.398;2023-05-18T07:23:17;18.10;99.90
29237;DHT22;16266;50.866;4.398;2023-05-18T07:25:43;18.20;99.90
29237;DHT22;16266;50.866;4.398;2023-05-18T07:28:09;19.00;99.90
29237;DHT22;16266;50.866;4.398;2023-05-18T07:30:35;19.60;97.50
29237;DHT22;16266;50.866;4.398;2023-05-18T07:33:00;20.40;94.20
29237;DHT22;16266;50.866;4.398;2023-05-18T07:35:26;21.20;90.60
29237;DHT22;16266;50.866;4.398;2023-05-18T07:37:52;21.40;87.10
29237;DHT22;16266;50.866;4.398;2023-05-18T07:40:18;21.70;82.30
29237;DHT22;16266;50.866;4.398;2023-05-18T07:42:44;21.80;83.20
29237;DHT22;16266;50.866;4.398;2023-05-18T07:45:10;22.40;77.60
29237;DHT22;16266;50.866;4.398;2023-05-18T07:47:36;22.30;73.00
29237;DHT22;16266;50.866;4.398;2023-05-18T07:50:02;22.90;69.30
29237;DHT22;16266;50.866;4.398;2023-05-18T07:52:28;23.10;67.90
29237;DHT22;16266;50.866;4.398;2023-05-18T07:54:54;23.50;64.30
29237;DHT22;16266;50.866;4.398;2023-05-18T07:57:21;24.30;61.20
29237;DHT22;16266;50.866;4.398;2023-05-18T07:59:47;25.00;56.40
29237;DHT22;16266;50.866;4.398;2023-05-18T08:02:12;25.50;53.10
29237;DHT22;16266;50.866;4.398;2023-05-18T08:04:40;25.70;48.90
29237;DHT22;16266;50.866;4.398;2023-05-18T08:07:06;26.00;45.50
29237;DHT22;16266;50.866;4.398;2023-05-18T08:09:33;26.00;46.20
29237;DHT22;16266;50.866;4.398;2023-05-18T08:11:59;27.30;43.60
29237;DHT22;16266;50.866;4.398;2023-05-18T08:14:25;27.40;38.90
29237;DHT22;16266;50.866;4.398;2023-05-18T08:16:51;26.50;40.30
29237;DHT22;16266;50.866;4.398;2023-05-18T08:19:16;27.20;38.50
29237;DHT22;16266;50.866;4.398;2023-05-18T08:21:42;27.00;35.50
29237;DHT22;16266;50.866;4.398;2023-05-18T08:24:10;27.10;35.40
29237;DHT22;16266;50.866;4.398;2023-05-18T08:26:36;26.10;35.90
29237;DHT22;16266;50.866;4.398;2023-05-18T08:29:02;26.50;36.10
29237;DHT22;16266;50.866;4.398;2023-05-18T08:31:35;26.60;35.30
29237;DHT22;16266;50.866;4.398;2023-05-18T08:34:02;26.50;35.80
29237;DHT22;16266;50.866;4.398;2023-05-18T08:36:27;27.20;33.30
29237;DHT22;16266;50.866;4.398;2023-05-18T08:38:53;27.90;33.10
29237;DHT22;16266;50.866;4.398;2023-05-18T08:41:28;28.70;30.80
29237;DHT22;16266;50.866;4.398;2023-05-18T08:44:10;29.30;30.50
29237;DHT22;16266;50.866;4.398;2023-05-18T08:46:40;27.90;28.00
29237;DHT22;16266;50.866;4.398;2023-05-18T08:49:08;26.70;29.60
29237;DHT22;16266;50.866;4.398;2023-05-18T08:51:36;25.90;31.20
29237;DHT22;16266;50.866;4.398;2023-05-18T08:54:04;26.10;31.90
29237;DHT22;16266;50.866;4.398;2023-05-18T08:56:32;26.10;31.70
29237;DHT22;16266;50.866;4.398;2023-05-18T08:59:02;27.10;31.10
29237;DHT22;16266;50.866;4.398;2023-05-18T09:01:29;28.50;29.70
29237;DHT22;16266;50.866;4.398;2023-05-18T09:03:56;30.00;25.80
29237;DHT22;16266;50.866;4.398;2023-05-18T09:06:25;28.70;26.60
29237;DHT22;16266;50.866;4.398;2023-05-18T09:08:53;28.50;25.80
29237;DHT22;16266;50.866;4.398;2023-05-18T09:11:24;28.10;25.40
29237;DHT22;16266;50.866;4.398;2023-05-18T09:13:50;28.90;24.40
29237;DHT22;16266;50.866;4.398;2023-05-18T09:16:16;28.50;24.20
29237;DHT22;16266;50.866;4.398;2023-05-18T09:18:42;28.30;25.20
29237;DHT22;16266;50.866;4.398;2023-05-18T09:21:09;28.00;24.00
29237;DHT22;16266;50.866;4.398;2023-05-18T09:23:36;28.50;24.30
29237;DHT22;16266;50.866;4.398;2023-05-18T09:26:02;27.30;24.10
29237;DHT22;16266;50.866;4.398;2023-05-18T09:31:00;28.70;23.50
29237;DHT22;16266;50.866;4.398;2023-05-18T09:33:35;29.20;22.80
29237;DHT22;16266;50.866;4.398;2023-05-18T09:36:06;29.40;21.70
29237;DHT22;16266;50.866;4.398;2023-05-18T09:38:41;28.60;21.50
29237;DHT22;16266;50.866;4.398;2023-05-18T09:41:16;27.90;22.40
29237;DHT22;16266;50.866;4.398;2023-05-18T09:43:43;28.10;21.00
29237;DHT22;16266;50.866;4.398;2023-05-18T09:46:11;27.80;20.50
29237;DHT22;16266;50.866;4.398;2023-05-18T09:48:43;28.30;20.80
29237;DHT22;16266;50.866;4.398;2023-05-18T09:51:10;28.20;21.70
29237;DHT22;16266;50.866;4.398;2023-05-18T09:53:53;27.20;22.40
29237;DHT22;16266;50.866;4.398;2023-05-18T09:56:23;28.40;19.90
29237;DHT22;16266;50.866;4.398;2023-05-18T09:58:49;28.20;19.50
29237;DHT22;16266;50.866;4.398;2023-05-18T10:01:15;27.50;21.60
29237;DHT22;16266;50.866;4.398;2023-05-18T10:03:41;26.00;24.20
29237;DHT22;16266;50.866;4.398;2023-05-18T10:06:10;24.60;26.10
29237;DHT22;16266;50.866;4.398;2023-05-18T10:08:39;23.10;29.10
29237;DHT22;16266;50.866;4.398;2023-05-18T10:11:05;22.70;32.20
29237;DHT22;16266;50.866;4.398;2023-05-18T10:13:32;21.90;33.30
29237;DHT22;16266;50.866;4.398;2023-05-18T10:16:03;22.50;33.20
29237;DHT22;16266;50.866;4.398;2023-05-18T10:18:36;23.60;29.60
29237;DHT22;16266;50.866;4.398;2023-05-18T10:21:05;25.10;29.00
29237;DHT22;16266;50.866;4.398;2023-05-18T10:23:35;25.50;26.70
29237;DHT22;16266;50.866;4.398;2023-05-18T10:26:05;24.80;27.20
29237;DHT22;16266;50.866;4.398;2023-05-18T10:28:41;24.10;28.60
29237;DHT22;16266;50.866;4.398;2023-05-18T10:31:07;23.60;29.80
29237;DHT22;16266;50.866;4.398;2023-05-18T10:33:35;23.40;26.60
29237;DHT22;16266;50.866;4.398;2023-05-18T10:36:05;23.70;26.80
29237;DHT22;16266;50.866;4.398;2023-05-18T10:38:32;23.20;28.00
29237;DHT22;16266;50.866;4.398;2023-05-18T10:40:59;23.30;29.60
29237;DHT22;16266;50.866;4.398;2023-05-18T10:43:26;23.70;27.70
29237;DHT22;16266;50.866;4.398;2023-05-18T10:46:00;24.90;28.40
29237;DHT22;16266;50.866;4.398;2023-05-18T10:48:27;24.20;26.80
29237;DHT22;16266;50.866;4.398;2023-05-18T10:50:55;25.50;26.30
29237;DHT22;16266;50.866;4.398;2023-05-18T10:53:25;25.20;25.00
29237;DHT22;16266;50.866;4.398;2023-05-18T10:55:56;24.80;25.90
29237;DHT22;16266;50.866;4.398;2023-05-18T10:58:26;25.40;26.40
29237;DHT22;16266;50.866;4.398;2023-05-18T11:00:56;26.30;24.70
29237;DHT22;16266;50.866;4.398;2023-05-18T11:03:22;27.00;24.50
29237;DHT22;16266;50.866;4.398;2023-05-18T11:06:04;27.50;22.60
29237;DHT22;16266;50.866;4.398;2023-05-18T11:08:33;27.30;21.10
29237;DHT22;16266;50.866;4.398;2023-05-18T11:11:01;27.10;21.70
29237;DHT22;16266;50.866;4.398;2023-05-18T11:13:33;26.70;22.00
29237;DHT22;16266;50.866;4.398;2023-05-18T11:21:00;24.10;25.50
29237;DHT22;16266;50.866;4.398;2023-05-18T11:23:33;24.00;25.90
29237;DHT22;16266;50.866;4.398;2023-05-18T11:25:59;24.00;26.20
29237;DHT22;16266;50.866;4.398;2023-05-18T11:28:29;24.70;25.50
29237;DHT22;16266;50.866;4.398;2023-05-18T11:30:54;25.00;25.60
29237;DHT22;16266;50.866;4.398;2023-05-18T11:33:23;25.90;24.20
29237;DHT22;16266;50.866;4.398;2023-05-18T11:35:57;26.20;24.10
29237;DHT22;16266;50.866;4.398;2023-05-18T11:38:44;25.20;23.90
29237;DHT22;16266;50.866;4.398;2023-05-18T11:41:31;25.00;24.90
29237;DHT22;16266;50.866;4.398;2023-05-18T11:46:53;24.70;27.30
29237;DHT22;16266;50.866;4.398;2023-05-18T11:49:22;25.40;25.20
29237;DHT22;16266;50.866;4.398;2023-05-18T11:52:03;25.30;24.80
29237;DHT22;16266;50.866;4.398;2023-05-18T11:54:48;24.60;24.80
29237;DHT22;16266;50.866;4.398;2023-05-18T11:57:16;24.30;25.60
29237;DHT22;16266;50.866;4.398;2023-05-18T11:59:47;25.00;23.40
29237;DHT22;16266;50.866;4.398;2023-05-18T12:02:23;25.90;23.50
29237;DHT22;16266;50.866;4.398;2023-05-18T12:04:51;25.50;23.60
29237;DHT22;16266;50.866;4.398;2023-05-18T12:07:18;25.30;22.80
29237;DHT22;16266;50.866;4.398;2023-05-18T12:09:45;26.30;23.00
29237;DHT22;16266;50.866;4.398;2023-05-18T12:12:13;26.20;21.60
29237;DHT22;16266;50.866;4.398;2023-05-18T12:14:42;27.40;21.30
29237;DHT22;16266;50.866;4.398;2023-05-18T12:17:09;26.80;20.90
29237;DHT22;16266;50.866;4.398;2023-05-18T12:19:43;25.60;22.10
29237;DHT22;16266;50.866;4.398;2023-05-18T12:22:10;25.50;23.30
29237;DHT22;16266;50.866;4.398;2023-05-18T12:24:40;24.80;23.30
29237;DHT22;16266;50.866;4.398;2023-05-18T12:27:08;25.30;23.50
29237;DHT22;16266;50.866;4.398;2023-05-18T12:29:37;25.50;22.70
29237;DHT22;16266;50.866;4.398;2023-05-18T12:32:08;25.50;22.40
29237;DHT22;16266;50.866;4.398;2023-05-18T12:34:35;27.40;21.00
29237;DHT22;16266;50.866;4.398;2023-05-18T12:37:01;27.90;19.90
29237;DHT22;16266;50.866;4.398;2023-05-18T12:39:27;28.40;19.30
29237;DHT22;16266;50.866;4.398;2023-05-18T12:41:53;29.90;19.40
29237;DHT22;16266;50.866;4.398;2023-05-18T12:44:20;30.50;17.30
29237;DHT22;16266;50.866;4.398;2023-05-18T12:46:46;28.30;17.30
29237;DHT22;16266;50.866;4.398;2023-05-18T12:49:12;26.60;18.40
29237;DHT22;16266;50.866;4.398;2023-05-18T12:51:38;25.80;20.00
29237;DHT22;16266;50.866;4.398;2023-05-18T12:54:05;26.00;20.20
29237;DHT22;16266;50.866;4.398;2023-05-18T12:56:50;26.40;21.10
29237;DHT22;16266;50.866;4.398;2023-05-18T12:59:17;26.20;20.30
29237;DHT22;16266;50.866;4.398;2023-05-18T13:01:44;26.50;20.30
29237;DHT22;16266;50.866;4.398;2023-05-18T13:04:10;25.20;20.00
29237;DHT22;16266;50.866;4.398;2023-05-18T13:06:37;24.00;21.60
29237;DHT22;16266;50.866;4.398;2023-05-18T13:09:07;25.30;20.70
29237;DHT22;16266;50.866;4.398;2023-05-18T13:11:32;25.60;20.50
29237;DHT22;16266;50.866;4.398;2023-05-18T13:14:07;25.30;20.80
29237;DHT22;16266;50.866;4.398;2023-05-18T13:16:36;25.20;20.90
29237;DHT22;16266;50.866;4.398;2023-05-18T13:19:07;25.20;21.30
29237;DHT22;16266;50.866;4.398;2023-05-18T13:21:33;25.00;21.90
29237;DHT22;16266;50.866;4.398;2023-05-18T13:24:00;24.80;21.90
29237;DHT22;16266;50.866;4.398;2023-05-18T13:26:26;24.70;22.20
29237;DHT22;16266;50.866;4.398;2023-05-18T13:28:55;24.90;21.70
29237;DHT22;16266;50.866;4.398;2023-05-18T13:31:22;24.40;23.10
29237;DHT22;16266;50.866;4.398;2023-05-18T13:33:49;24.60;23.50
29237;DHT22;16266;50.866;4.398;2023-05-18T13:36:15;24.10;23.60
29237;DHT22;16266;50.866;4.398;2023-05-18T13:38:41;23.60;23.90
29237;DHT22;16266;50.866;4.398;2023-05-18T13:41:09;23.10;25.70
29237;DHT22;16266;50.866;4.398;2023-05-18T13:43:41;22.30;26.40
29237;DHT22;16266;50.866;4.398;2023-05-18T13:46:07;21.50;27.90
29237;DHT22;16266;50.866;4.398;2023-05-18T13:48:33;22.10;27.90
29237;DHT22;16266;50.866;4.398;2023-05-18T13:50:59;22.30;27.20
29237;DHT22;16266;50.866;4.398;2023-05-18T13:53:25;22.20;25.80
29237;DHT22;16266;50.866;4.398;2023-05-18T13:55:51;21.80;26.90
29237;DHT22;16266;50.866;4.398;2023-05-18T13:58:16;22.00;26.70
29237;DHT22;16266;50.866;4.398;2023-05-18T14:00:42;22.60;26.10
29237;DHT22;16266;50.866;4.398;2023-05-18T14:03:08;22.80;26.70
29237;DHT22;16266;50.866;4.398;2023-05-18T14:05:35;23.20;27.10
29237;DHT22;16266;50.866;4.398;2023-05-18T14:08:01;22.70;25.70
29237;DHT22;16266;50.866;4.398;2023-05-18T14:10:27;22.20;26.80
29237;DHT22;16266;50.866;4.398;2023-05-18T14:12:52;22.10;26.60
29237;DHT22;16266;50.866;4.398;2023-05-18T14:15:18;22.20;26.10
29237;DHT22;16266;50.866;4.398;2023-05-18T14:17:44;22.30;26.50
29237;DHT22;16266;50.866;4.398;2023-05-18T14:20:10;21.60;26.50
29237;DHT22;16266;50.866;4.398;2023-05-18T14:22:37;21.40;27.30
29237;DHT22;16266;50.866;4.398;2023-05-18T14:25:03;21.80;26.70
29237;DHT22;16266;50.866;4.398;2023-05-18T14:27:28;21.90;25.80
29237;DHT22;16266;50.866;4.398;2023-05-18T14:29:54;21.60;27.10
29237;DHT22;16266;50.866;4.398;2023-05-18T14:32:20;21.50;28.00
29237;DHT22;16266;50.866;4.398;2023-05-18T14:34:49;21.00;29.30
29237;DHT22;16266;50.866;4.398;2023-05-18T14:37:17;20.70;29.50
29237;DHT22;16266;50.866;4.398;2023-05-18T14:39:42;20.50;29.80
29237;DHT22;16266;50.866;4.398;2023-05-18T14:42:08;20.40;29.00
29237;DHT22;16266;50.866;4.398;2023-05-18T14:44:34;20.40;29.40
29237;DHT22;16266;50.866;4.398;2023-05-18T14:46:59;20.00;29.90
29237;DHT22;16266;50.866;4.398;2023-05-18T14:49:25;20.00;31.10
29237;DHT22;16266;50.866;4.398;2023-05-18T14:51:51;19.60;32.60
29237;DHT22;16266;50.866;4.398;2023-05-18T14:54:17;19.00;34.40
29237;DHT22;16266;50.866;4.398;2023-05-18T14:56:43;18.70;36.30
29237;DHT22;16266;50.866;4.398;2023-05-18T14:59:09;18.60;38.70
29237;DHT22;16266;50.866;4.398;2023-05-18T15:01:35;18.60;39.00
29237;DHT22;16266;50.866;4.398;2023-05-18T15:04:00;18.20;39.70
29237;DHT22;16266;50.866;4.398;2023-05-18T15:06:27;18.30;41.50
29237;DHT22;16266;50.866;4.398;2023-05-18T15:08:53;18.50;43.80
29237;DHT22;16266;50.866;4.398;2023-05-18T15:11:19;18.50;43.80
29237;DHT22;16266;50.866;4.398;2023-05-18T15:13:47;18.60;41.90
29237;DHT22;16266;50.866;4.398;2023-05-18T15:16:13;18.70;41.60
29237;DHT22;16266;50.866;4.398;2023-05-18T15:18:40;18.70;42.70
29237;DHT22;16266;50.866;4.398;2023-05-18T15:21:06;18.70;43.70
29237;DHT22;16266;50.866;4.398;2023-05-18T15:23:32;18.20;45.00
29237;DHT22;16266;50.866;4.398;2023-05-18T15:25:58;18.30;45.70
29237;DHT22;16266;50.866;4.398;2023-05-18T15:28:23;18.50;45.00
29237;DHT22;16266;50.866;4.398;2023-05-18T15:30:49;18.50;42.30
29237;DHT22;16266;50.866;4.398;2023-05-18T15:33:15;18.40;41.20
29237;DHT22;16266;50.866;4.398;2023-05-18T15:35:41;18.10;41.70
29237;DHT22;16266;50.866;4.398;2023-05-18T15:38:07;18.20;41.20
29237;DHT22;16266;50.866;4.398;2023-05-18T15:40:32;18.10;41.90
29237;DHT22;16266;50.866;4.398;2023-05-18T15:42:58;18.10;43.70
29237;DHT22;16266;50.866;4.398;2023-05-18T15:45:25;18.20;45.60
29237;DHT22;16266;50.866;4.398;2023-05-18T15:47:51;18.20;45.10
29237;DHT22;16266;50.866;4.398;2023-05-18T15:50:16;18.20;44.70
29237;DHT22;16266;50.866;4.398;2023-05-18T15:52:42;18.10;43.30
29237;DHT22;16266;50.866;4.398;2023-05-18T15:55:08;18.00;42.90
29237;DHT22;16266;50.866;4.398;2023-05-18T15:57:34;18.00;43.40
29237;DHT22;16266;50.866;4.398;2023-05-18T16:00:00;18.10;42.50
29237;DHT22;16266;50.866;4.398;2023-05-18T16:02:25;18.20;41.60
29237;DHT22;16266;50.866;4.398;2023-05-18T16:04:51;18.40;42.30